Latest Weather Observations for Avalon

IDV60901

Issued at 4:51 am EDT Tuesday 19 January 2021 (issued every 10 minutes, with the page automatically refreshed every 10 minutes)

About weather observations | Map of Melbourne area stations | Latest observations for Melbourne area | Other Formats
Station Details ID: 087113 Name: AVALON AIRPORT Lat: -38.03 Lon: 144.48 Height: 10.6 m
Data from the previous 72 hours. | See also: Recent months at Avalon
Date/Time
EDT
Temp
°C
App
Temp
°C
Dew
Point
°C
Rel
Hum
%
Delta-T
°C
Wind Press
QNH
hPa
Press
MSL
hPa
Rain since
9am
mm
Dir  Spd
km/h
Gust
km/h
Spd
kts
Gust
kts
19/04:30am 13.2 8.5 7.9 70 2.6 SSW 22 32 12 17 1020.5 1020.5 0.0
19/04:00am 13.9 8.2 8.5 70 2.7 SSW 28 37 15 20 1020.3 1020.3 0.0
19/03:30am 14.2 9.4 10.4 78 2.0 SSW 26 35 14 19 1020.1 1020.1 0.0
19/03:00am 14.7 11.5 12.0 84 1.5 SW 20 26 11 14 1019.9 1019.9 0.0
19/02:30am 14.4 12.5 14.2 99 0.1 WSW 17 22 9 12 1019.9 1019.9 0.0
19/02:00am 14.3 12.8 14.1 99 0.1 WSW 15 22 8 12 1019.8 1019.8 0.0
19/01:30am 14.4 13.7 14.4 100 0.0 W 11 17 6 9 1019.7 1019.7 0.0
19/01:00am 14.5 12.7 14.5 100 0.0 W 17 20 9 11 1019.7 1019.7 0.0
19/12:30am 14.5 13.1 14.5 100 0.0 W 15 20 8 11 1019.8 1019.8 0.0
19/12:01am 14.2 13.1 14.2 100 0.0 WSW 13 15 7 8 1019.8 1019.8 0.0
19/12:00am 14.2 13.1 14.2 100 0.0 WSW 13 17 7 9 1019.8 1019.8 0.0
 
Date/Time
EDT
Temp
°C
App
Temp
°C
Dew
Point
°C
Rel
Hum
%
Delta-T
°C
Wind Press
QNH
hPa
Press
MSL
hPa
Rain since
9am
mm
Dir  Spd
km/h
Gust
km/h
Spd
kts
Gust
kts
18/11:55pm 14.2 13.1 14.2 100 0.0 WSW 13 17 7 9 1019.8 1019.8 0.0
18/11:42pm 14.2 12.3 14.2 100 0.0 SW 17 26 9 14 1019.8 1019.8 0.0
18/11:33pm 14.7 12.1 13.9 95 0.4 WSW 20 30 11 16 1019.7 1019.7 0.0
18/11:30pm 15.0 12.2 13.2 89 1.0 WSW 20 26 11 14 1019.7 1019.7 0.0
18/11:00pm 15.2 12.8 12.7 85 1.4 W 17 22 9 12 1019.4 1019.4 0.0
18/10:30pm 15.5 12.5 12.1 80 1.9 W 19 26 10 14 1019.4 1019.4 0.0
18/10:00pm 16.1 13.0 11.7 75 2.4 WSW 19 24 10 13 1019.2 1019.2 0.0
18/09:30pm 16.3 12.3 11.7 74 2.5 SW 24 30 13 16 1018.9 1018.9 0.0
18/09:00pm 16.0 11.2 11.6 75 2.4 SW 28 39 15 21 1018.7 1018.7 0.0
18/08:30pm 16.9 12.5 11.6 71 2.9 W 26 37 14 20 1018.2 1018.2 0.0
18/08:00pm 17.6 12.0 11.4 67 3.4 WSW 32 44 17 24 1017.7 1017.7 0.0
18/07:30pm 18.6 12.8 10.9 61 4.2 WSW 32 41 17 22 1017.2 1017.2 0.0
18/07:00pm 19.3 13.7 10.3 56 4.8 WSW 30 39 16 21 1016.7 1016.7 0.0
18/06:30pm 20.3 14.4 11.2 56 5.0 WSW 33 44 18 24 1016.3 1016.3 0.0
18/06:00pm 21.1 15.4 11.2 53 5.5 W 32 43 17 23 1016.2 1016.2 0.0
18/05:30pm 20.6 14.6 10.7 53 5.4 WSW 33 44 18 24 1016.4 1016.4 0.0
18/05:00pm 21.3 15.0 11.1 52 5.6 WSW 35 48 19 26 1016.4 1016.4 0.0
18/04:30pm 22.6 17.5 12.0 51 6.0 WSW 30 41 16 22 1016.5 1016.5 0.0
18/04:00pm 22.8 17.5 11.2 48 6.5 WSW 30 46 16 25 1016.2 1016.2 0.0
18/03:41pm 22.9 17.1 10.7 46 6.7 SW 32 52 17 28 1016.2 1016.2 0.0
18/03:30pm 22.0 17.0 10.8 49 6.2 SW 28 43 15 23 1016.3 1016.3 0.0
18/03:00pm 22.5 16.5 10.9 48 6.4 SW 33 48 18 26 1016.3 1016.3 0.0
18/02:30pm 22.9 17.0 11.3 48 6.5 SW 33 44 18 24 1016.2 1016.2 0.0
18/02:00pm 23.9 18.3 11.6 46 6.9 WSW 32 43 17 23 1016.0 1016.0 0.0
18/01:38pm 24.3 19.4 12.6 48 6.7 WSW 30 54 16 29 1016.0 1016.0 0.0
18/01:30pm 22.2 16.2 10.7 48 6.3 W 33 46 18 25 1016.2 1016.2 0.0
18/01:00pm 22.9 17.4 11.9 50 6.2 W 32 46 17 25 1016.5 1016.5 0.0
18/12:40pm 21.8 16.9 11.2 51 5.9 WSW 28 46 15 25 1016.7 1016.7 0.0
18/12:30pm 21.6 16.8 11.6 53 5.6 W 28 41 15 22 1016.9 1016.9 0.0
18/12:00pm 20.3 15.4 11.2 56 5.0 W 28 37 15 20 1016.9 1016.9 0.0
18/11:30am 19.6 14.9 12.1 62 4.2 W 28 43 15 23 1017.2 1017.2 0.0
18/11:00am 18.6 14.7 12.1 66 3.6 WSW 24 30 13 16 1017.6 1017.6 0.0
18/10:30am 17.4 12.7 11.9 70 3.0 WSW 28 37 15 20 1018.0 1018.0 0.0
18/10:00am 16.6 13.7 12.9 79 2.1 SW 20 32 11 17 1018.1 1018.1 0.0
18/09:30am 16.2 12.4 12.4 78 2.1 WSW 24 35 13 19 1018.1 1018.1 0.0
18/09:00am 15.6 12.7 15.1 97 0.3 WSW 24 32 13 17 1018.0 1018.0 0.0
18/08:35am 14.9 12.3 14.9 100 0.0 W 22 35 12 19 1017.8 1017.8 0.0
18/08:30am 14.9 12.7 14.9 100 0.0 W 20 30 11 16 1017.8 1017.8 0.0
18/08:08am 14.8 12.7 14.8 100 0.0 W 19 22 10 12 1017.7 1017.7 0.0
18/08:00am 14.3 12.8 14.3 100 0.0 W 15 20 8 11 1017.6 1017.6 0.0
18/07:35am 14.3 12.4 14.3 100 0.0 WNW 17 22 9 12 1017.5 1017.5 0.0
18/07:30am 14.4 13.3 14.4 100 0.0 WNW 13 20 7 11 1017.5 1017.5 0.0
18/07:11am 14.3 12.8 14.3 100 0.0 WNW 15 17 8 9 1017.2 1017.2 0.0
18/07:00am 14.3 12.8 14.3 100 0.0 WNW 15 22 8 12 1017.2 1017.2 0.0
18/06:30am 14.1 11.7 13.9 99 0.1 WNW 19 22 10 12 1017.1 1017.1 0.0
18/06:23am 14.1 11.5 13.9 99 0.1 WNW 20 24 11 13 1017.1 1017.1 0.0
18/06:09am 14.3 12.0 14.0 98 0.2 WNW 19 24 10 13 1017.1 1017.1 0.0
18/06:00am 14.4 12.0 13.9 97 0.3 W 19 22 10 12 1017.1 1017.1 0.0
18/05:30am 14.2 12.2 14.0 99 0.1 W 17 22 9 12 1017.0 1017.0 0.0
18/05:00am 14.6 11.9 12.8 89 1.0 WNW 19 26 10 14 1017.0 1017.0 0.0
18/04:30am 14.6 12.2 12.5 87 1.1 WNW 17 22 9 12 1016.6 1016.6 0.0
18/04:00am 14.8 11.8 12.1 84 1.5 WNW 19 26 10 14 1016.8 1016.8 0.0
18/03:30am 15.0 12.3 11.8 81 1.7 WNW 17 24 9 13 1016.9 1016.9 0.0
18/03:00am 14.9 11.8 11.7 81 1.7 W 19 26 10 14 1017.4 1017.4 0.0
18/02:30am 14.8 11.6 11.4 80 1.8 W 19 26 10 14 1017.6 1017.6 0.0
18/02:00am 14.7 11.9 11.3 80 1.8 W 17 24 9 13 1017.8 1017.8 0.0
18/01:30am 14.5 11.6 11.1 80 1.8 W 17 20 9 11 1018.1 1018.1 0.0
18/01:00am 13.6 11.1 11.0 84 1.4 W 15 20 8 11 1018.3 1018.3 0.0
18/12:30am 13.2 10.1 10.2 82 1.6 W 17 22 9 12 1018.4 1018.4 0.0
18/12:00am 13.3 9.7 9.9 80 1.7 W 19 24 10 13 1018.7 1018.7 0.0
 
Date/Time
EDT
Temp
°C
App
Temp
°C
Dew
Point
°C
Rel
Hum
%
Delta-T
°C
Wind Press
QNH
hPa
Press
MSL
hPa
Rain since
9am
mm
Dir  Spd
km/h
Gust
km/h
Spd
kts
Gust
kts
17/11:30pm 13.6 10.3 9.6 77 2.0 W 17 24 9 13 1018.7 1018.7 0.0
17/11:00pm 14.0 10.2 9.2 73 2.4 W 19 26 10 14 1018.7 1018.7 0.0
17/10:30pm 14.5 10.8 9.3 71 2.7 W 19 26 10 14 1018.8 1018.8 0.0
17/10:00pm 15.1 11.3 9.2 68 3.0 W 19 26 10 14 1018.7 1018.7 0.0
17/09:30pm 15.6 14.1 10.6 72 2.6 W 9 19 5 10 1018.4 1018.4 0.0
17/09:00pm 15.1 13.7 12.1 82 1.6 SSW 11 15 6 8 1018.3 1018.3 0.0
17/08:30pm 16.2 14.4 12.0 76 2.3 S 13 19 7 10 1017.9 1017.9 0.0
17/08:00pm 17.4 15.2 12.1 71 2.9 SSE 15 20 8 11 1017.5 1017.5 0.0
17/07:30pm 17.7 14.7 11.9 69 3.2 S 19 24 10 13 1017.2 1017.2 0.0
17/07:00pm 18.4 15.1 11.7 65 3.7 S 20 26 11 14 1017.1 1017.1 0.0
17/06:30pm 18.6 14.6 11.9 65 3.7 S 24 30 13 16 1017.0 1017.0 0.0
17/06:00pm 19.3 15.9 11.3 60 4.4 S 20 26 11 14 1017.1 1017.1 0.0
17/05:30pm 19.8 16.4 11.3 58 4.7 S 20 28 11 15 1017.0 1017.0 0.0
17/05:00pm 20.0 17.2 11.5 58 4.7 SSE 17 24 9 13 1017.1 1017.1 0.0
17/04:30pm 19.7 17.1 10.7 56 4.9 S 15 24 8 13 1017.3 1017.3 0.0
17/04:00pm 20.5 17.3 11.4 56 5.0 S 19 28 10 15 1017.7 1017.7 0.0
17/03:30pm 19.7 16.9 10.1 54 5.2 S 15 24 8 13 1017.7 1017.7 0.0
17/03:00pm 20.2 16.6 10.6 54 5.2 S 20 30 11 16 1018.1 1018.1 0.0
17/02:30pm 20.0 16.2 9.9 52 5.4 SSE 20 28 11 15 1018.0 1018.0 0.0
17/02:00pm 19.7 15.9 9.9 53 5.2 S 20 28 11 15 1018.2 1018.2 0.0
17/01:30pm 20.1 15.5 9.7 51 5.6 S 24 37 13 20 1018.4 1018.4 0.0
17/01:00pm 20.9 15.9 8.2 44 6.6 SW 24 37 13 20 1018.6 1018.6 0.0
17/12:30pm 19.2 14.9 7.0 45 6.2 SW 19 30 10 16 1018.7 1018.7 0.0
17/12:00pm 18.7 14.2 6.9 46 5.9 WSW 20 28 11 15 1018.7 1018.7 0.0
17/11:30am 18.7 13.9 7.5 48 5.7 SW 22 32 12 17 1019.0 1019.0 0.0
17/11:00am 18.2 14.3 8.5 53 5.0 SW 19 28 10 15 1018.9 1018.9 0.0
17/10:30am 17.6 12.8 8.7 56 4.6 SW 24 33 13 18 1019.2 1019.2 0.0
17/10:00am 17.0 12.5 8.7 58 4.3 WSW 22 30 12 16 1019.2 1019.2 0.0
17/09:30am 15.7 10.0 8.4 62 3.7 WSW 28 33 15 18 1019.3 1019.3 0.0
17/09:00am 14.8 10.8 9.0 68 2.9 WSW 20 28 11 15 1019.0 1019.0 0.0
17/08:30am 13.8 10.1 9.5 75 2.2 W 19 24 10 13 1018.8 1018.8 0.0
17/08:00am 12.8 9.2 9.8 82 1.5 W 19 24 10 13 1018.4 1018.4 0.0
17/07:30am 12.0 9.2 9.9 87 1.1 W 15 20 8 11 1017.9 1017.9 0.0
17/07:00am 11.4 7.7 10.1 92 0.7 W 20 24 11 13 1017.7 1017.7 0.0
17/06:30am 11.5 8.4 10.4 93 0.6 W 17 24 9 13 1017.4 1017.4 0.0
17/06:00am 11.5 8.6 10.9 96 0.3 W 17 20 9 11 1017.2 1017.2 0.0
17/05:30am 10.6 8.2 10.0 96 0.3 WNW 13 17 7 9 1016.9 1016.9 0.0
17/05:00am 11.3 7.9 10.4 94 0.5 WNW 19 24 10 13 1016.9 1016.9 0.0
17/04:30am 10.9 9.1 10.7 99 0.1 WNW 11 13 6 7 1016.9 1016.9 0.0
17/04:00am 11.3 8.7 10.7 96 0.3 W 15 19 8 10 1016.7 1016.7 0.0
17/03:30am 11.4 8.8 10.6 95 0.4 W 15 19 8 10 1016.5 1016.5 0.0
17/03:00am 11.4 9.1 10.3 93 0.6 WNW 13 19 7 10 1016.7 1016.7 0.0
17/02:30am 11.5 9.6 10.4 93 0.6 W 11 15 6 8 1016.8 1016.8 0.0
17/02:00am 11.4 8.4 10.8 96 0.3 W 17 19 9 10 1016.9 1016.9 0.0
17/01:30am 11.3 8.6 10.2 93 0.6 W 15 19 8 10 1016.7 1016.7 0.0
17/01:00am 12.1 9.4 10.2 88 1.0 W 15 19 8 10 1016.6 1016.6 0.0
17/12:30am 12.3 9.8 9.7 84 1.3 W 13 15 7 8 1016.6 1016.6 0.0
17/12:00am 13.2 10.3 9.6 79 1.8 W 15 19 8 10 1016.4 1016.4 0.0
 
Date/Time
EDT
Temp
°C
App
Temp
°C
Dew
Point
°C
Rel
Hum
%
Delta-T
°C
Wind Press
QNH
hPa
Press
MSL
hPa
Rain since
9am
mm
Dir  Spd
km/h
Gust
km/h
Spd
kts
Gust
kts
16/11:30pm 13.1 9.7 9.2 77 2.0 W 17 20 9 11 1016.3 1016.3 0.0
16/11:00pm 14.0 10.2 9.0 72 2.5 W 19 24 10 13 1016.4 1016.4 0.0
16/10:30pm 14.6 10.7 8.8 68 2.9 W 19 24 10 13 1016.2 1016.2 0.0
16/10:00pm 15.2 9.9 8.4 64 3.4 WSW 26 32 14 17 1016.0 1016.0 0.0
16/09:30pm 15.9 11.0 8.6 62 3.7 SW 24 32 13 17 1015.8 1015.8 0.0
16/09:00pm 16.4 9.9 8.9 61 3.9 SW 33 46 18 25 1015.6 1015.6 0.0
16/08:30pm 16.9 11.0 9.1 60 4.0 SW 30 48 16 26 1015.2 1015.2 0.0
16/08:24pm 16.9 10.9 8.8 59 4.2 SW 30 48 16 26 1015.2 1015.2 0.0
16/08:00pm 17.4 11.3 9.6 60 4.1 WSW 32 44 17 24 1014.8 1014.8 0.0
16/07:39pm 17.7 11.0 9.8 60 4.2 WSW 35 54 19 29 1014.6 1014.6 0.0
16/07:30pm 17.7 10.2 9.6 59 4.3 WSW 39 54 21 29 1014.5 1014.5 0.0
16/07:29pm 17.7 10.3 9.8 60 4.2 WSW 39 54 21 29 1014.4 1014.4 0.0
16/07:00pm 17.9 12.2 11.2 65 3.6 WSW 32 41 17 22 1014.0 1014.0 0.0
16/06:30pm 18.1 13.4 12.1 68 3.3 W 28 39 15 21 1013.6 1013.6 0.0
16/06:00pm 18.1 12.0 13.0 72 2.9 WSW 37 52 20 28 1013.6 1013.6 0.0
16/05:51pm 18.2 11.6 11.5 65 3.7 WSW 37 50 20 27 1013.6 1013.6 0.0
16/05:30pm 18.9 13.2 12.9 68 3.4 W 35 46 19 25 1013.4 1013.4 0.0
16/05:05pm 17.2 10.3 12.9 76 2.4 W 41 59 22 32 1013.6 1013.6 0.0
16/05:00pm 18.2 10.5 11.5 65 3.7 W 43 59 23 32 1013.4 1013.4 0.0
16/04:50pm 19.6 12.6 11.4 59 4.5 W 39 57 21 31 1013.1 1013.1 0.0
16/04:30pm 19.1 13.3 12.6 66 3.6 W 35 48 19 26 1013.4 1013.4 0.0
16/04:09pm 17.4 10.6 11.9 70 3.0 W 39 57 21 31 1013.5 1013.5 0.0
16/04:00pm 17.9 10.6 11.5 66 3.5 W 41 56 22 30 1013.5 1013.5 0.0
16/03:36pm 19.4 13.2 11.4 60 4.4 W 35 54 19 29 1013.6 1013.6 0.0
16/03:30pm 19.0 12.0 11.3 61 4.2 W 39 54 21 29 1013.6 1013.6 0.0
16/03:12pm 18.6 12.2 10.7 60 4.3 W 35 59 19 32 1013.7 1013.7 0.0
16/03:00pm 19.2 13.3 11.3 60 4.3 W 33 46 18 25 1013.9 1013.9 0.0
16/02:38pm 19.5 12.9 11.3 59 4.5 W 37 56 20 30 1014.2 1014.2 0.0
16/02:30pm 18.8 12.5 10.9 60 4.3 W 35 50 19 27 1014.2 1014.2 0.0
16/02:00pm 18.2 11.2 10.1 59 4.3 WSW 37 56 20 30 1014.5 1014.5 0.0
16/01:44pm 17.2 10.1 9.4 60 4.1 W 37 56 20 30 1014.5 1014.5 0.0
16/01:30pm 18.2 11.6 10.1 59 4.3 W 35 50 19 27 1014.6 1014.6 0.0
16/01:05pm 18.3 11.1 10.7 61 4.1 W 39 57 21 31 1014.8 1014.8 0.0
16/01:00pm 17.0 10.3 9.7 62 3.8 W 35 50 19 27 1015.0 1015.0 0.0
16/12:30pm 16.8 10.4 9.5 62 3.8 W 33 43 18 23 1015.2 1015.2 0.0
16/12:00pm 16.0 9.5 8.2 60 3.9 WSW 32 46 17 25 1015.1 1015.1 0.0
16/11:30am 16.2 9.5 8.2 59 4.0 W 33 46 18 25 1015.1 1015.1 0.0
16/11:11am 16.5 8.6 8.0 57 4.3 W 39 57 21 31 1014.9 1014.9 0.0
16/11:00am 15.8 8.1 7.3 57 4.2 W 37 46 20 25 1014.9 1014.9 0.0
16/10:30am 17.7 11.5 9.3 58 4.4 W 32 43 17 23 1014.4 1014.4 0.0
16/10:00am 15.4 8.8 8.4 63 3.5 WSW 33 46 18 25 1014.4 1014.4 0.0
16/09:55am 15.8 10.0 8.1 60 3.9 WSW 28 46 15 25 1014.4 1014.4 0.0
16/09:30am 15.7 8.7 9.8 68 3.1 WSW 37 48 20 26 1014.2 1014.2 0.0
16/09:00am 15.3 10.2 10.5 73 2.5 WSW 28 39 15 21 1014.0 1014.0 2.2
16/08:30am 14.2 10.1 11.5 84 1.4 WSW 24 32 13 17 1013.9 1013.9 2.2
16/08:00am 14.0 10.4 12.9 93 0.6 W 24 37 13 20 1013.6 1013.6 2.2
16/07:30am 12.7 10.3 12.5 99 0.1 W 17 26 9 14 1013.2 1013.2 2.2
16/07:00am 12.1 9.5 12.1 100 0.0 W 17 22 9 12 1013.0 1013.0 2.2
16/06:30am 12.3 9.3 12.1 99 0.1 W 19 26 10 14 1012.7 1012.7 2.2
16/06:00am 12.2 9.0 12.0 99 0.1 W 20 28 11 15 1012.4 1012.4 2.2
16/05:30am 12.2 8.6 12.0 99 0.1 W 22 28 12 15 1012.1 1012.1 2.2
16/05:00am 11.7 7.6 11.4 98 0.2 W 24 33 13 18 1011.7 1011.7 2.2

Latest Capital City Observations: Canberra | Sydney | Melbourne | Brisbane | Adelaide | Perth | Hobart | Darwin

Other formats

Comma delimited format used in spreadsheet applications
http://www.bom.gov.au/fwo/IDV60901/IDV60901.94854.axf

JavaScript Object Notation format (JSON) in row-major order
http://www.bom.gov.au/fwo/IDV60901/IDV60901.94854.json

Data quality

Most of these data are generated automatically and are frequently updated. Quality checks on data are not normally performed. It is possible for incorrect values to appear. Refer to information at About Latest Weather Observations and please check the disclaimer before using these data.